createdAt,value
2018-08-10T00:00:02.414Z,0
2018-08-10T00:05:03.282Z,0
2018-08-10T00:10:02.780Z,0
2018-08-10T00:15:03.240Z,0
2018-08-10T00:20:02.738Z,0
2018-08-10T00:25:03.144Z,0
2018-08-10T00:30:02.586Z,0
2018-08-10T00:35:03.017Z,0
2018-08-10T00:40:02.468Z,0
2018-08-10T00:45:02.971Z,0
2018-08-10T00:50:02.420Z,0
2018-08-10T00:55:02.892Z,0
2018-08-10T01:00:03.313Z,0
2018-08-10T01:05:02.658Z,0
2018-08-10T01:10:03.149Z,0
2018-08-10T01:15:02.564Z,0
2018-08-10T01:20:03.092Z,0
2018-08-10T01:25:02.499Z,0
2018-08-10T01:30:02.982Z,0
2018-08-10T01:35:02.734Z,0
2018-08-10T01:40:03.367Z,0
2018-08-10T01:45:02.824Z,0
2018-08-10T01:50:03.305Z,0
2018-08-10T01:55:02.683Z,0
2018-08-10T02:00:03.150Z,0
2018-08-10T02:05:02.556Z,0
2018-08-10T02:10:03.087Z,0
2018-08-10T02:15:02.534Z,0
2018-08-10T02:20:03.022Z,0
2018-08-10T02:25:02.476Z,0
2018-08-10T02:30:03.012Z,0
2018-08-10T02:35:02.524Z,0
2018-08-10T02:40:03.141Z,0
2018-08-10T02:45:02.596Z,0
2018-08-10T02:50:02.988Z,0
2018-08-10T02:55:02.387Z,0
2018-08-10T03:00:03.216Z,0
2018-08-10T03:05:02.605Z,0
2018-08-10T03:10:03.130Z,0
2018-08-10T03:15:02.589Z,0
2018-08-10T03:20:03.067Z,0
2018-08-10T03:25:02.505Z,0
2018-08-10T03:30:03.012Z,0
2018-08-10T03:35:02.487Z,1
2018-08-10T03:40:02.915Z,4
2018-08-10T03:45:03.348Z,7
2018-08-10T03:50:02.766Z,19
2018-08-10T03:55:03.216Z,27
2018-08-10T04:00:02.584Z,36
2018-08-10T04:05:03.031Z,48
2018-08-10T04:10:02.501Z,62
2018-08-10T04:15:02.886Z,100
2018-08-10T04:20:03.304Z,260
2018-08-10T04:25:02.721Z,345
2018-08-10T04:30:03.037Z,451
2018-08-10T04:35:02.410Z,579
2018-08-10T04:40:02.902Z,650
2018-08-10T04:45:03.323Z,703
2018-08-10T04:50:02.741Z,774
2018-08-10T04:55:03.268Z,849
2018-08-10T05:00:02.980Z,925
2018-08-10T05:05:02.393Z,1000
2018-08-10T05:10:02.882Z,1000
2018-08-10T05:15:03.293Z,1000
2018-08-10T05:20:02.760Z,1000
2018-08-10T05:25:03.186Z,1000
2018-08-10T05:30:02.591Z,1000
2018-08-10T05:35:02.932Z,1000
2018-08-10T05:40:02.391Z,1000
2018-08-10T05:45:02.798Z,1000
2018-08-10T05:50:03.191Z,1000
2018-08-10T05:55:02.574Z,1000
2018-08-10T06:00:02.901Z,1000
2018-08-10T06:05:03.270Z,1000
2018-08-10T06:10:02.684Z,2000
2018-08-10T06:15:03.087Z,2000
2018-08-10T06:20:02.837Z,2000
2018-08-10T06:25:02.756Z,2000
2018-08-10T06:30:02.602Z,2000
2018-08-10T06:35:03.020Z,2000
2018-08-10T06:40:02.501Z,2000
2018-08-10T06:45:03.413Z,2000
2018-08-10T06:50:02.414Z,2000
2018-08-10T06:55:03.024Z,3000
2018-08-10T07:00:02.430Z,3000
2018-08-10T07:05:02.890Z,3000
2018-08-10T07:10:03.400Z,3000
2018-08-10T07:15:02.825Z,4000
2018-08-10T07:20:03.280Z,4000
2018-08-10T07:25:02.656Z,5000
2018-08-10T07:30:02.984Z,6000
2018-08-10T07:35:02.363Z,7000
2018-08-10T07:40:02.773Z,9000
2018-08-10T07:45:03.201Z,8000
2018-08-10T07:50:02.590Z,9000
2018-08-10T07:55:02.981Z,7000
2018-08-10T08:00:02.426Z,36000
2018-08-10T08:05:02.805Z,8000
2018-08-10T08:10:03.242Z,26000
2018-08-10T08:15:02.678Z,36000
2018-08-10T08:20:03.080Z,8000
2018-08-10T08:25:02.447Z,10000
2018-08-10T08:30:02.942Z,38000
2018-08-10T08:35:02.477Z,41000
2018-08-10T08:40:03.315Z,44000
2018-08-10T08:45:02.710Z,42000
2018-08-10T08:50:03.272Z,40000
2018-08-10T08:55:02.791Z,11000
2018-08-10T09:00:03.238Z,45000
2018-08-10T09:05:02.730Z,55000
2018-08-10T09:10:03.241Z,54000
2018-08-10T09:15:02.830Z,11000
2018-08-10T09:20:03.333Z,31000
2018-08-10T09:25:02.871Z,51000
2018-08-10T09:30:03.268Z,35000
2018-08-10T09:35:02.635Z,50000
2018-08-10T09:40:03.122Z,55000
2018-08-10T09:45:02.839Z,7000
2018-08-10T09:50:03.188Z,19000
2018-08-10T09:55:02.608Z,54000
2018-08-10T10:00:02.954Z,13000
2018-08-10T10:05:02.400Z,12000
2018-08-10T10:10:02.944Z,6000
2018-08-10T10:15:02.401Z,6000
2018-08-10T10:20:02.814Z,7000
2018-08-10T10:25:03.180Z,5000
2018-08-10T10:30:02.546Z,4000
2018-08-10T10:35:02.971Z,9000
2018-08-10T10:40:02.364Z,5000
2018-08-10T10:45:02.726Z,50000
2018-08-10T10:50:03.250Z,12000
2018-08-10T10:55:02.618Z,7000
2018-08-10T11:00:03.027Z,57000
2018-08-10T11:05:02.406Z,33000
2018-08-10T11:10:02.821Z,14000
2018-08-10T11:15:03.169Z,26000
2018-08-10T11:20:02.637Z,11000
2018-08-10T11:25:03.109Z,9000
2018-08-10T11:30:02.750Z,5000
2018-08-10T11:35:03.181Z,7000
2018-08-10T11:40:02.656Z,9000
2018-08-10T11:45:03.235Z,6000
2018-08-10T11:50:03.287Z,24000
2018-08-10T11:55:03.273Z,26000
2018-08-10T12:00:02.847Z,3000
2018-08-10T12:05:02.898Z,7000
2018-08-10T12:10:02.376Z,6000
2018-08-10T12:15:02.769Z,4000
2018-08-10T12:20:03.206Z,5000
2018-08-10T12:25:02.637Z,16000
2018-08-10T12:30:03.083Z,8000
2018-08-10T12:35:02.582Z,10000
2018-08-10T12:40:03.141Z,10000
2018-08-10T12:45:02.545Z,10000
2018-08-10T12:50:02.979Z,32000
2018-08-10T12:55:02.443Z,54000
2018-08-10T13:00:02.877Z,33000
2018-08-10T13:05:02.345Z,11000
2018-08-10T13:10:02.912Z,9000
2018-08-10T13:15:03.319Z,7000
2018-08-10T13:20:02.753Z,6000
2018-08-10T13:25:03.184Z,34000
2018-08-10T13:30:02.563Z,8000
2018-08-10T13:35:03.048Z,7000
2018-08-10T13:40:02.503Z,16000
2018-08-10T13:45:02.934Z,42000
2018-08-10T13:50:02.434Z,14000
2018-08-10T13:55:02.873Z,13000
2018-08-10T14:00:03.259Z,14000
2018-08-10T14:05:02.693Z,44000
2018-08-10T14:10:03.171Z,36000
2018-08-10T14:15:02.591Z,33000
2018-08-10T14:20:03.052Z,32000
2018-08-10T14:25:02.464Z,12000
2018-08-10T14:30:02.948Z,7000
2018-08-10T14:35:02.383Z,7000
2018-08-10T14:40:02.883Z,7000
2018-08-10T14:45:03.346Z,10000
2018-08-10T14:50:02.807Z,27000
2018-08-10T14:55:03.248Z,32000
2018-08-10T15:00:02.691Z,13000
2018-08-10T15:05:03.195Z,5000
2018-08-10T15:10:02.701Z,7000
2018-08-10T15:15:03.107Z,24000
2018-08-10T15:20:02.544Z,26000
2018-08-10T15:25:03.193Z,9000
2018-08-10T15:30:03.116Z,12000
2018-08-10T15:35:02.557Z,28000
2018-08-10T15:40:03.035Z,5000
2018-08-10T15:45:02.423Z,4000
2018-08-10T15:50:03.022Z,5000
2018-08-10T15:55:02.448Z,13000
2018-08-10T16:00:02.982Z,23000
2018-08-10T16:05:02.410Z,22000
2018-08-10T16:10:02.966Z,20000
2018-08-10T16:15:02.343Z,19000
2018-08-10T16:20:02.788Z,18000
2018-08-10T16:25:03.185Z,18000
2018-08-10T16:30:02.646Z,18000
2018-08-10T16:35:03.189Z,17000
2018-08-10T16:40:02.662Z,14000
2018-08-10T16:45:03.096Z,2000
2018-08-10T16:50:02.468Z,15000
2018-08-10T16:55:02.881Z,2000
2018-08-10T17:00:03.265Z,8000
2018-08-10T17:05:02.713Z,12000
2018-08-10T17:10:03.181Z,12000
2018-08-10T17:15:02.603Z,12000
2018-08-10T17:20:03.404Z,12000
2018-08-10T17:25:02.784Z,11000
2018-08-10T17:30:03.233Z,10000
2018-08-10T17:35:02.724Z,9000
2018-08-10T17:40:03.173Z,2000
2018-08-10T17:45:02.586Z,1000
2018-08-10T17:50:02.966Z,7000
2018-08-10T17:55:02.332Z,1000
2018-08-10T18:00:02.753Z,1000
2018-08-10T18:05:03.232Z,5000
2018-08-10T18:10:02.872Z,1000
2018-08-10T18:15:03.023Z,915
2018-08-10T18:20:02.402Z,645
2018-08-10T18:25:02.818Z,545
2018-08-10T18:30:03.162Z,592
2018-08-10T18:35:02.572Z,561
2018-08-10T18:40:02.971Z,430
2018-08-10T18:45:02.334Z,300
2018-08-10T18:50:02.760Z,132
2018-08-10T18:55:03.167Z,103
2018-08-10T19:00:02.549Z,85
2018-08-10T19:05:02.901Z,60
2018-08-10T19:10:02.406Z,48
2018-08-10T19:15:02.809Z,42
2018-08-10T19:20:03.403Z,33
2018-08-10T19:25:02.895Z,25
2018-08-10T19:30:02.585Z,14
2018-08-10T19:35:03.101Z,7
2018-08-10T19:40:02.524Z,2
2018-08-10T19:45:02.975Z,1
2018-08-10T19:50:02.340Z,0
2018-08-10T19:55:02.828Z,0
2018-08-10T20:00:03.128Z,0
2018-08-10T20:05:02.584Z,0
2018-08-10T20:10:03.009Z,0
2018-08-10T20:15:02.515Z,0
2018-08-10T20:20:02.499Z,0
2018-08-10T20:25:02.922Z,0
2018-08-10T20:30:03.323Z,0
2018-08-10T20:35:02.734Z,0
2018-08-10T20:40:03.154Z,0
2018-08-10T20:45:02.869Z,0
2018-08-10T20:50:03.298Z,0
2018-08-10T20:55:02.709Z,0
2018-08-10T21:00:03.151Z,0
2018-08-10T21:05:02.712Z,0
2018-08-10T21:10:03.310Z,0
2018-08-10T21:15:02.663Z,0
2018-08-10T21:20:03.142Z,0
2018-08-10T21:25:02.614Z,0
2018-08-10T21:30:03.209Z,0
2018-08-10T21:35:02.620Z,0
2018-08-10T21:40:03.066Z,0
2018-08-10T21:45:02.532Z,0
2018-08-10T21:50:03.011Z,0
2018-08-10T21:55:02.488Z,0
2018-08-10T22:00:02.956Z,0
2018-08-10T22:05:02.587Z,0
2018-08-10T22:10:03.091Z,0
2018-08-10T22:15:02.446Z,0
2018-08-10T22:20:02.982Z,0
2018-08-10T22:25:02.331Z,0
2018-08-10T22:30:02.829Z,0
2018-08-10T22:35:03.196Z,0
2018-08-10T22:40:02.804Z,0
2018-08-10T22:45:03.165Z,0
2018-08-10T22:50:02.622Z,0
2018-08-10T22:55:03.002Z,0
2018-08-10T23:00:02.412Z,0
2018-08-10T23:05:02.800Z,0
2018-08-10T23:10:03.157Z,0
2018-08-10T23:15:02.563Z,0
2018-08-10T23:20:03.001Z,0
2018-08-10T23:25:02.436Z,0
2018-08-10T23:30:02.851Z,0
2018-08-10T23:35:03.247Z,0
2018-08-10T23:40:02.715Z,0
2018-08-10T23:45:03.147Z,0
2018-08-10T23:50:02.538Z,0
2018-08-10T23:55:02.913Z,0
